Time;durP1;ratioP1;P1;durP2;ratioP2;P2;SDS_P1;SDS_P2;PMS_P1;PMS_P2;Temp;Humidity;BMP_temperature;BMP_pressure;BME280_temperature;BME280_humidity;BME280_pressure;Samples;Min_cycle;Max_cycle;Signal;HPM_P1;HPM_P2
2023/06/09 00:01:22;;;;;;;;;;;;;;;16.04;nan;100207.75;5077872;28;20390;-80
2023/06/09 00:03:50;;;;;;;;;;;;;;;15.96;nan;100214.06;5074164;28;19942;-80
2023/06/09 00:06:16;;;;;;;;;;;;;;;15.90;nan;100214.84;5058664;28;19917;-80
2023/06/09 00:08:41;;;;;;;;;;;;;;;15.88;nan;100216.88;5068426;28;20516;-80
2023/06/09 00:11:09;;;;;;;;;;;;;;;15.83;nan;100211.31;5056463;28;19927;-81
2023/06/09 00:13:34;;;;;;;;;;;;;;;15.78;nan;100203.91;5077336;28;19916;-80
2023/06/09 00:15:59;;;;;;;;;;;;;;;15.73;nan;100211.66;5076306;28;19927;-80
2023/06/09 00:18:25;;;;;;;;;;;;;;;15.70;nan;100207.50;5063058;28;19920;-80
2023/06/09 00:20:51;;;;;;;;;;;;;;;15.67;nan;100201.72;5057449;28;19919;-80
2023/06/09 00:23:16;;;;;;;;;;;;;;;15.66;nan;100197.38;5055195;28;19917;-80
2023/06/09 00:25:41;;;;;;;;;;;;;;;15.64;nan;100196.78;5078166;28;19943;-79
2023/06/09 00:28:09;;;;;;;;;;;;;;;15.63;nan;100203.13;5064204;28;19919;-79
2023/06/09 00:30:34;;;;;;;;;;;;;;;15.64;nan;100204.78;5080999;28;20339;-79
2023/06/09 00:33:00;;;;;;;;;;;;;;;15.64;nan;100215.44;5081095;28;19912;-80
2023/06/09 00:35:25;;;;;;;;;;;;;;;15.63;nan;100214.59;5063218;28;19920;-81
2023/06/09 00:37:50;;;;;;;;;;;;;;;15.62;nan;100217.47;5076545;28;19916;-79
2023/06/09 00:40:15;;;;;;;;;;;;;;;15.61;nan;100208.66;5075228;28;19912;-80
2023/06/09 00:42:40;;;;;;;;;;;;;;;15.63;nan;100216.44;5070810;28;20016;-80
2023/06/09 00:45:06;;;;;;;;;;;;;;;15.57;nan;100209.22;5045069;28;20338;-81
2023/06/09 00:47:31;;;;;;;;;;;;;;;15.51;nan;100200.97;5059306;28;19917;-81
2023/06/09 00:49:56;;;;;;;;;;;;;;;15.44;nan;100207.25;5054780;28;20276;-81
2023/06/09 00:52:22;;;;;;;;;;;;;;;15.35;nan;100205.75;5066172;28;20293;-81
2023/06/09 00:54:47;;;;;;;;;;;;;;;15.28;nan;100213.69;5039293;28;20277;-80
2023/06/09 00:57:12;;;;;;;;;;;;;;;15.25;nan;100206.06;5055919;28;19924;-81
2023/06/09 00:59:38;;;;;;;;;;;;;;;15.24;nan;100207.09;5059798;28;20487;-80
2023/06/09 01:02:04;;;;;;;;;;;;;;;15.19;nan;100207.66;5074914;28;19912;-80
2023/06/09 01:04:34;;;;;;;;;;;;;;;15.17;nan;100207.00;5053105;28;19940;-81
2023/06/09 01:07:03;;;;;;;;;;;;;;;15.19;nan;100205.00;5065917;28;19944;-81
2023/06/09 01:10:04;;;;;;;;;;;;;;;15.27;nan;100206.69;5067055;28;19912;-81
2023/06/09 01:12:57;;;;;;;;;;;;;;;15.34;nan;100207.59;5011087;28;20004;-79
2023/06/09 01:15:26;;;;;;;;;;;;;;;15.38;nan;100200.88;5028305;28;20366;-80
2023/06/09 01:17:54;;;;;;;;;;;;;;;15.39;nan;100197.16;5068111;28;19959;-80
2023/06/09 01:20:27;;;;;;;;;;;;;;;15.36;nan;100200.22;5073396;28;19974;-79
2023/06/09 01:22:58;;;;;;;;;;;;;;;15.40;nan;100206.84;5070212;28;19920;-80
2023/06/09 01:25:26;;;;;;;;;;;;;;;15.49;nan;100195.03;5065524;28;19938;-80
2023/06/09 01:27:52;;;;;;;;;;;;;;;15.56;nan;100194.25;5051778;28;19916;-79
2023/06/09 01:30:18;;;;;;;;;;;;;;;15.61;nan;100191.81;5066099;28;20408;-80
2023/06/09 01:32:44;;;;;;;;;;;;;;;15.61;nan;100191.81;5061579;28;19987;-80
2023/06/09 01:35:10;;;;;;;;;;;;;;;15.54;nan;100193.59;5071784;28;19920;-80
2023/06/09 01:37:35;;;;;;;;;;;;;;;15.43;nan;100190.44;5073942;28;19968;-80
2023/06/09 01:40:00;;;;;;;;;;;;;;;15.33;nan;100183.81;5073219;28;19912;-80
2023/06/09 01:42:26;;;;;;;;;;;;;;;15.24;nan;100180.44;5057106;28;20011;-80
2023/06/09 01:44:51;;;;;;;;;;;;;;;15.15;nan;100178.91;5063581;28;20400;-80
2023/06/09 01:47:19;;;;;;;;;;;;;;;15.07;nan;100177.22;5068798;28;19969;-80
2023/06/09 01:50:03;;;;;;;;;;;;;;;14.96;nan;100177.72;5062142;28;19917;-80
2023/06/09 01:52:33;;;;;;;;;;;;;;;14.88;nan;100186.66;5063930;28;19955;-80
2023/06/09 01:55:00;;;;;;;;;;;;;;;14.90;nan;100178.44;5054565;28;19922;-80
2023/06/09 01:57:40;;;;;;;;;;;;;;;14.93;nan;100178.91;5072804;28;19928;-79
2023/06/09 02:00:06;;;;;;;;;;;;;;;14.97;nan;100169.53;5052178;28;20546;-80
2023/06/09 02:02:32;;;;;;;;;;;;;;;14.97;nan;100172.19;5072549;28;19956;-79
2023/06/09 02:04:58;;;;;;;;;;;;;;;14.95;nan;100168.91;5060430;28;20389;-79
2023/06/09 02:07:24;;;;;;;;;;;;;;;14.91;nan;100169.47;5073963;28;19959;-81
2023/06/09 02:09:50;;;;;;;;;;;;;;;14.88;nan;100175.19;5071681;28;19916;-80
2023/06/09 02:12:15;;;;;;;;;;;;;;;14.86;nan;100170.03;5047641;28;19928;-78
2023/06/09 02:14:41;;;;;;;;;;;;;;;14.80;nan;100179.59;5062355;28;19981;-80
2023/06/09 02:17:08;;;;;;;;;;;;;;;14.76;nan;100170.34;5088948;28;19920;-80
2023/06/09 02:19:37;;;;;;;;;;;;;;;14.75;nan;100167.84;5088539;28;19916;-78
2023/06/09 02:22:02;;;;;;;;;;;;;;;14.78;nan;100170.97;5065532;28;19916;-80
2023/06/09 02:24:28;;;;;;;;;;;;;;;14.81;nan;100161.78;5072517;28;19977;-79
2023/06/09 02:26:53;;;;;;;;;;;;;;;14.88;nan;100159.19;5068661;28;19916;-79
2023/06/09 02:29:18;;;;;;;;;;;;;;;14.92;nan;100161.31;5050299;28;19943;-80
2023/06/09 02:31:43;;;;;;;;;;;;;;;15.01;nan;100160.13;5041357;28;19972;-80
2023/06/09 02:34:08;;;;;;;;;;;;;;;15.08;nan;100160.22;5054679;28;19916;-80
2023/06/09 02:36:37;;;;;;;;;;;;;;;15.06;nan;100163.09;5068300;28;19927;-80
2023/06/09 02:39:02;;;;;;;;;;;;;;;15.06;nan;100172.88;5063376;28;20312;-79
2023/06/09 02:41:28;;;;;;;;;;;;;;;15.02;nan;100175.13;5045315;28;19924;-79
2023/06/09 02:43:53;;;;;;;;;;;;;;;14.96;nan;100175.84;5052952;28;20320;-80
2023/06/09 02:46:18;;;;;;;;;;;;;;;14.94;nan;100175.22;5059174;28;20340;-80
2023/06/09 02:48:43;;;;;;;;;;;;;;;15.03;nan;100174.09;5067708;28;19924;-79
2023/06/09 02:51:12;;;;;;;;;;;;;;;15.31;nan;100176.00;5071586;28;20007;-79
2023/06/09 02:53:37;;;;;;;;;;;;;;;15.57;nan;100174.59;5072095;28;19916;-79
2023/06/09 02:56:02;;;;;;;;;;;;;;;15.63;nan;100173.81;5066706;28;20365;-79
2023/06/09 02:58:27;;;;;;;;;;;;;;;15.64;nan;100178.13;5066077;28;19916;-81
2023/06/09 03:00:53;;;;;;;;;;;;;;;15.64;nan;100184.28;5069191;28;19917;-79
2023/06/09 03:03:18;;;;;;;;;;;;;;;15.62;nan;100188.97;5068240;28;19969;-80
2023/06/09 03:05:44;;;;;;;;;;;;;;;15.58;nan;100185.03;5057621;28;20021;-80
2023/06/09 03:08:09;;;;;;;;;;;;;;;15.58;nan;100189.56;5073934;28;20569;-80
2023/06/09 03:10:34;;;;;;;;;;;;;;;15.56;nan;100194.25;5054827;28;19921;-80
2023/06/09 03:13:00;;;;;;;;;;;;;;;15.49;nan;100202.16;5070543;28;20480;-80
2023/06/09 03:15:25;;;;;;;;;;;;;;;15.36;nan;100199.41;5071192;28;19948;-80
2023/06/09 03:17:50;;;;;;;;;;;;;;;15.29;nan;100207.34;5061836;28;20449;-80
2023/06/09 03:20:16;;;;;;;;;;;;;;;15.17;nan;100198.19;5071130;28;19916;-80
2023/06/09 03:22:41;;;;;;;;;;;;;;;15.08;nan;100198.31;5069908;28;19912;-80
2023/06/09 03:25:06;;;;;;;;;;;;;;;14.98;nan;100196.97;5047614;28;19913;-80
2023/06/09 03:27:31;;;;;;;;;;;;;;;14.93;nan;100200.22;5063609;28;19923;-80
2023/06/09 03:29:57;;;;;;;;;;;;;;;14.84;nan;100207.47;5063145;28;19935;-80
2023/06/09 03:32:22;;;;;;;;;;;;;;;14.77;nan;100198.59;5060319;28;20003;-80
2023/06/09 03:34:47;;;;;;;;;;;;;;;14.75;nan;100199.78;5076489;28;19990;-80
2023/06/09 03:37:14;;;;;;;;;;;;;;;14.70;nan;100200.34;5060510;28;19920;-80
2023/06/09 03:39:39;;;;;;;;;;;;;;;14.65;nan;100200.91;5064094;28;19924;-80
2023/06/09 03:42:05;;;;;;;;;;;;;;;14.61;nan;100193.47;5068947;28;19927;-80
2023/06/09 03:44:30;;;;;;;;;;;;;;;14.57;nan;100195.69;5053395;28;19916;-80
2023/06/09 03:46:55;;;;;;;;;;;;;;;14.49;nan;100193.13;5044561;28;20410;-79
2023/06/09 03:49:20;;;;;;;;;;;;;;;14.38;nan;100189.09;5047830;28;19941;-80
2023/06/09 03:51:46;;;;;;;;;;;;;;;14.32;nan;100191.66;5069480;28;19917;-79
2023/06/09 03:54:11;;;;;;;;;;;;;;;14.32;nan;100187.16;5068659;28;19916;-79
2023/06/09 03:56:36;;;;;;;;;;;;;;;14.33;nan;100193.31;5075061;28;19977;-81
2023/06/09 03:59:01;;;;;;;;;;;;;;;14.32;nan;100191.66;5063058;28;19916;-81
2023/06/09 04:01:26;;;;;;;;;;;;;;;14.31;nan;100190.84;5071929;28;19947;-81
2023/06/09 04:03:52;;;;;;;;;;;;;;;14.33;nan;100195.97;5055104;28;20286;-79
2023/06/09 04:06:17;;;;;;;;;;;;;;;14.34;nan;100197.63;5063037;28;19999;-80
2023/06/09 04:08:44;;;;;;;;;;;;;;;14.34;nan;100205.59;5065341;28;19924;-79
2023/06/09 04:11:09;;;;;;;;;;;;;;;14.35;nan;100193.94;5070235;28;20508;-81
2023/06/09 04:13:34;;;;;;;;;;;;;;;14.35;nan;100197.44;5055902;28;19971;-81
2023/06/09 04:15:59;;;;;;;;;;;;;;;14.42;nan;100194.88;5068688;28;19963;-80
2023/06/09 04:18:25;;;;;;;;;;;;;;;14.49;nan;100197.59;5073149;28;19962;-80
2023/06/09 04:20:50;;;;;;;;;;;;;;;14.57;nan;100202.88;5072823;28;19952;-80
2023/06/09 04:23:15;;;;;;;;;;;;;;;14.63;nan;100202.94;5043830;28;19978;-81
2023/06/09 04:25:41;;;;;;;;;;;;;;;14.66;nan;100207.06;5074010;28;19920;-79
2023/06/09 04:28:08;;;;;;;;;;;;;;;14.65;nan;100198.25;5050001;28;20285;-80
2023/06/09 04:30:34;;;;;;;;;;;;;;;14.70;nan;100197.69;5050838;28;19970;-81
2023/06/09 04:32:59;;;;;;;;;;;;;;;14.74;nan;100203.47;5068641;28;19917;-80
2023/06/09 04:35:25;;;;;;;;;;;;;;;14.74;nan;100198.97;5071634;28;19983;-79
2023/06/09 04:37:50;;;;;;;;;;;;;;;14.79;nan;100198.41;5058428;28;19940;-81
2023/06/09 04:40:21;;;;;;;;;;;;;;;14.80;nan;100200.06;5073990;28;19917;-80
2023/06/09 04:42:50;;;;;;;;;;;;;;;14.89;nan;100193.59;5047918;28;19913;-81
2023/06/09 04:45:17;;;;;;;;;;;;;;;14.97;nan;100205.97;5073390;28;20234;-79
2023/06/09 04:47:42;;;;;;;;;;;;;;;15.02;nan;100204.41;5043456;28;19916;-80
2023/06/09 04:50:08;;;;;;;;;;;;;;;15.08;nan;100203.63;5075579;28;19916;-78
2023/06/09 04:52:33;;;;;;;;;;;;;;;15.19;nan;100207.66;5077092;28;20003;-79
2023/06/09 04:54:59;;;;;;;;;;;;;;;15.28;nan;100208.38;5059400;28;20335;-79
2023/06/09 04:57:28;;;;;;;;;;;;;;;15.37;nan;100209.84;5073990;28;19933;-80
2023/06/09 04:59:53;;;;;;;;;;;;;;;15.51;nan;100211.63;5057925;28;19917;-79
2023/06/09 05:02:18;;;;;;;;;;;;;;;15.58;nan;100211.69;5073557;28;20350;-79
2023/06/09 05:04:43;;;;;;;;;;;;;;;15.63;nan;100211.13;5075496;28;19916;-80
2023/06/09 05:07:09;;;;;;;;;;;;;;;15.75;nan;100211.44;5052969;28;20540;-81
2023/06/09 05:09:34;;;;;;;;;;;;;;;15.76;nan;100219.25;5047929;28;19999;-80
2023/06/09 05:12:00;;;;;;;;;;;;;;;15.85;nan;100214.59;5040837;28;20007;-80
2023/06/09 05:14:25;;;;;;;;;;;;;;;15.97;nan;100206.88;5068343;28;19962;-79
2023/06/09 05:16:53;;;;;;;;;;;;;;;16.12;nan;100210.28;5046392;28;19920;-79
2023/06/09 05:19:18;;;;;;;;;;;;;;;16.27;nan;100215.50;5073706;28;19969;-79
2023/06/09 05:21:45;;;;;;;;;;;;;;;16.47;nan;100212.91;5073335;28;20493;-79
2023/06/09 05:24:10;;;;;;;;;;;;;;;16.64;nan;100218.75;5054018;28;20532;-79
2023/06/09 05:26:36;;;;;;;;;;;;;;;16.88;nan;100215.59;5068376;28;19916;-78
2023/06/09 05:29:01;;;;;;;;;;;;;;;17.11;nan;100217.94;5087522;28;20668;-79
2023/06/09 05:31:26;;;;;;;;;;;;;;;17.34;nan;100211.38;5086730;28;19925;-79
2023/06/09 05:33:51;;;;;;;;;;;;;;;17.59;nan;100216.94;5071374;28;19919;-79
2023/06/09 05:36:16;;;;;;;;;;;;;;;17.76;nan;100217.38;5071346;28;20280;-79
2023/06/09 05:38:42;;;;;;;;;;;;;;;17.91;nan;100219.84;5054247;28;19912;-79
2023/06/09 05:41:07;;;;;;;;;;;;;;;18.04;nan;100209.97;5058438;28;20485;-79
2023/06/09 05:43:32;;;;;;;;;;;;;;;18.38;nan;100225.94;5051697;28;19948;-79
2023/06/09 05:45:57;;;;;;;;;;;;;;;18.64;nan;100214.31;5052919;28;19916;-79
2023/06/09 05:48:22;;;;;;;;;;;;;;;19.03;nan;100223.22;5055397;28;19912;-79
2023/06/09 05:50:48;;;;;;;;;;;;;;;19.38;nan;100218.25;5052520;28;19916;-80
2023/06/09 05:53:15;;;;;;;;;;;;;;;19.84;nan;100232.38;5069269;28;19912;-80
2023/06/09 05:55:40;;;;;;;;;;;;;;;20.28;nan;100233.19;5062878;28;20374;-79
2023/06/09 05:58:05;;;;;;;;;;;;;;;20.66;nan;100232.97;5074510;28;19918;-80
2023/06/09 06:00:31;;;;;;;;;;;;;;;21.10;nan;100235.53;5057447;28;19947;-79
2023/06/09 06:02:59;;;;;;;;;;;;;;;21.49;nan;100236.03;5047896;28;19913;-80
2023/06/09 06:05:24;;;;;;;;;;;;;;;21.76;nan;100229.16;5054825;28;19983;-79
2023/06/09 06:07:49;;;;;;;;;;;;;;;22.23;nan;100231.06;5066643;28;19927;-79
2023/06/09 06:10:14;;;;;;;0.10;0.10;;;;;;;22.60;nan;100225.38;5069042;28;19916;-80
2023/06/09 06:12:40;;;;;;;0.10;0.10;;;;;;;22.90;nan;100231.34;5072696;28;20283;-81
2023/06/09 06:15:05;;;;;;;0.00;0.00;;;;;;;23.10;nan;100225.56;5071018;28;20036;-80
2023/06/09 06:17:31;;;;;;;;;;;;;;;23.11;nan;100229.88;5068372;28;20040;-80
2023/06/09 06:19:57;;;;;;;0.00;0.00;;;;;;;22.98;nan;100230.19;5072706;28;19913;-82
2023/06/09 06:22:22;;;;;;;0.00;0.00;;;;;;;23.53;nan;100236.81;5069503;28;20051;-81
2023/06/09 06:24:48;;;;;;;0.00;0.00;;;;;;;23.97;nan;100233.47;5054103;28;20388;-80
2023/06/09 06:27:13;;;;;;;0.00;0.00;;;;;;;24.44;nan;100228.47;5045254;28;20406;-80
2023/06/09 06:29:41;;;;;;;0.00;0.00;;;;;;;24.95;nan;100233.66;5057710;28;20960;-80
2023/06/09 06:32:06;;;;;;;;;;;;;;;25.23;nan;100224.53;5058525;28;20062;-80
2023/06/09 06:34:32;;;;;;;;;;;;;;;25.58;nan;100228.63;5068791;28;19924;-80
2023/06/09 06:36:57;;;;;;;;;;;;;;;26.03;nan;100221.94;5073172;28;19921;-81
2023/06/09 06:39:23;;;;;;;0.00;0.00;;;;;;;26.37;nan;100225.09;5072949;28;19927;-80
2023/06/09 06:41:48;;;;;;;0.00;0.00;;;;;;;26.16;nan;100223.34;5076648;28;20403;-80
2023/06/09 06:44:14;;;;;;;0.00;0.00;;;;;;;26.51;nan;100228.13;5073978;28;20520;-80
2023/06/09 06:46:39;;;;;;;0.00;0.00;;;;;;;26.93;nan;100218.25;5046913;28;20402;-82
2023/06/09 06:49:04;;;;;;;0.00;0.00;;;;;;;27.42;nan;100224.03;5068892;28;20111;-82
2023/06/09 06:51:29;;;;;;;;;;;;;;;27.32;nan;100226.75;5054486;28;20033;-82
2023/06/09 06:53:55;;;;;;;;;;;;;;;27.59;nan;100231.09;5042465;28;19920;-81
2023/06/09 06:56:21;;;;;;;;;;;;;;;27.46;nan;100227.84;5044795;28;19946;-82
2023/06/09 06:58:46;;;;;;;;;;;;;;;27.50;nan;100231.63;5056042;28;19917;-82
2023/06/09 07:01:14;;;;;;;0.00;0.00;;;;;;;27.83;nan;100237.63;5061025;28;19925;-83
2023/06/09 07:03:40;;;;;;;;;;;;;;;27.59;nan;100241.97;5068010;28;20048;-82
2023/06/09 07:06:07;;;;;;;0.00;0.00;;;;;;;27.74;nan;100240.06;5050257;28;19917;-82
2023/06/09 07:08:32;;;;;;;0.00;0.00;;;;;;;28.46;nan;100237.25;5016208;28;20803;-81
2023/06/09 07:10:57;;;;;;;0.00;0.00;;;;;;;29.09;nan;100246.75;4943206;28;20399;-82
2023/06/09 07:13:23;;;;;;;0.00;0.00;;;;;;;29.40;nan;100241.88;4933798;28;20404;-82
2023/06/09 07:15:48;;;;;;;0.00;0.00;;;;;;;29.77;nan;100240.50;4936080;29;20420;-82
2023/06/09 07:18:13;;;;;;;0.00;0.00;;;;;;;29.86;nan;100233.34;4959839;28;20411;-81
2023/06/09 07:20:40;;;;;;;;;;;;;;;29.67;nan;100230.50;4966370;28;20102;-82
2023/06/09 07:23:05;;;;;;;;;;;;;;;29.86;nan;100236.06;4940060;29;20400;-81
2023/06/09 07:25:31;;;;;;;;;;;;;;;29.95;nan;100239.78;4934431;28;19961;-81
2023/06/09 07:27:56;;;;;;;0.00;0.00;;;;;;;30.21;nan;100232.16;4933184;28;20320;-81
2023/06/09 07:30:22;;;;;;;0.00;0.00;;;;;;;30.86;nan;100233.56;4933276;28;20801;-81
2023/06/09 07:32:47;;;;;;;0.00;0.00;;;;;;;31.14;nan;100244.66;4936089;28;20028;-81
2023/06/09 07:35:13;;;;;;;;;;;;;;;31.23;nan;100237.41;4944625;29;20047;-81
2023/06/09 07:37:42;;;;;;;;;;;;;;;31.37;nan;100245.66;4953017;28;19925;-82
2023/06/09 07:40:08;;;;;;;;;;;;;;;31.49;nan;100249.59;4953402;28;20001;-81
2023/06/09 07:42:33;;;;;;;;;;;;;;;31.71;nan;100253.59;4953615;28;19918;-81
2023/06/09 07:44:59;;;;;;;;;;;;;;;31.55;nan;100249.50;4969613;28;19925;-81
2023/06/09 07:47:24;;;;;;;;;;;;;;;31.55;nan;100250.31;4954679;28;19926;-82
2023/06/09 07:49:49;;;;;;;;;;;;;;;31.50;nan;100253.94;4939536;28;19939;-81
2023/06/09 07:52:15;;;;;;;;;;;;;;;31.69;nan;100250.34;4946802;28;19930;-82
2023/06/09 07:54:40;;;;;;;;;;;;;;;31.85;nan;100251.72;4956412;28;19966;-81
2023/06/09 07:57:05;;;;;;;;;;;;;;;31.17;nan;100253.06;4955044;28;20348;-82
2023/06/09 07:59:31;;;;;;;;;;;;;;;30.93;nan;100249.59;4955358;28;19925;-81
2023/06/09 08:01:56;;;;;;;;;;;;;;;31.26;nan;100243.09;4955109;28;19914;-83
2023/06/09 08:04:21;;;;;;;;;;;;;;;31.58;nan;100238.75;4956028;28;20009;-82
2023/06/09 08:06:47;;;;;;;;;;;;;;;32.06;nan;100238.50;4966904;28;19980;-83
2023/06/09 08:09:12;;;;;;;;;;;;;;;32.56;nan;100241.34;4949916;28;19915;-82
2023/06/09 08:11:38;;;;;;;;;;;;;;;32.80;nan;100245.78;4936874;28;19994;-82
2023/06/09 08:14:03;;;;;;;;;;;;;;;32.03;nan;100238.28;4933061;29;19969;-81
2023/06/09 08:16:30;;;;;;;;;;;;;;;32.36;nan;100245.28;4933618;28;19918;-81
2023/06/09 08:18:55;;;;;;;;;;;;;;;32.02;nan;100231.19;4934788;28;20392;-81
2023/06/09 08:21:20;;;;;;;;;;;;;;;32.13;nan;100233.44;4937740;29;20052;-82
2023/06/09 08:23:46;;;;;;;;;;;;;;;32.16;nan;100237.50;4944023;28;19918;-81
2023/06/09 08:26:11;;;;;;;;;;;;;;;31.99;nan;100237.25;4934984;28;19926;-81
2023/06/09 08:28:40;;;;;;;;;;;;;;;31.81;nan;100239.75;4935976;28;19919;-82
2023/06/09 08:31:06;;;;;;;;;;;;;;;32.06;nan;100227.56;4935552;28;19922;-82
2023/06/09 08:33:35;;;;;;;;;;;;;;;31.99;nan;100227.16;4934868;28;19915;-81
2023/06/09 08:36:03;;;;;;;;;;;;;;;31.86;nan;100225.97;4939306;28;19922;-81
2023/06/09 08:38:31;;;;;;;;;;;;;;;32.12;nan;100223.59;4944181;28;20396;-80
2023/06/09 08:40:58;;;;;;;;;;;;;;;31.93;nan;100222.84;4946947;28;19993;-80
2023/06/09 08:43:24;;;;;;;;;;;;;;;32.46;nan;100222.34;4937045;28;19919;-81
2023/06/09 08:45:51;;;;;;;;;;;;;;;32.88;nan;100216.84;4936535;28;19954;-80
2023/06/09 08:48:18;;;;;;;;;;;;;;;33.29;nan;100213.16;4937343;28;19914;-80
2023/06/09 08:50:44;;;;;;;;;;;;;;;33.14;nan;100208.88;4943201;28;19919;-81
2023/06/09 08:53:12;;;;;;;;;;;;;;;32.85;nan;100222.94;4935587;28;19925;-81
2023/06/09 08:55:37;;;;;;;;;;;;;;;33.23;nan;100207.00;4936588;28;19918;-81
2023/06/09 08:58:03;;;;;;;;;;;;;;;33.61;nan;100204.69;4936329;28;19921;-82
2023/06/09 09:00:29;;;;;;;;;;;;;;;33.98;nan;100202.59;5034527;28;20010;-81
2023/06/09 09:02:56;;;;;;;;;;;;;;;34.59;nan;100207.47;4937566;29;19944;-83
2023/06/09 09:05:21;;;;;;;;;;;;;;;34.53;nan;100214.25;4941602;29;19954;-81
2023/06/09 09:07:46;;;;;;;;;;;;;;;34.11;nan;100209.16;4935964;28;19915;-82
2023/06/09 09:10:12;;;;;;;;;;;;;;;33.88;nan;100202.09;4945024;28;19944;-81
2023/06/09 09:12:47;;;;;;;;;;;;;;;33.96;nan;100204.03;4955428;28;20407;-81
2023/06/09 09:15:12;;;;;;;;;;;;;;;34.23;nan;100205.78;4955401;28;19915;-81
2023/06/09 09:17:39;;;;;;;;;;;;;;;34.83;nan;100202.34;4952447;28;19933;-81
2023/06/09 09:20:07;;;;;;;;;;;;;;;34.32;nan;100205.78;4951020;28;20514;-81
2023/06/09 09:22:42;;;;;;;;;;;;;;;34.97;nan;100195.88;4934401;28;20339;-81
2023/06/09 09:25:08;;;;;;;;;;;;;;;34.81;nan;100196.38;4934598;28;19921;-81
2023/06/09 09:27:33;;;;;;;;;;;;;;;34.63;nan;100206.53;4937960;28;19919;-82
2023/06/09 09:29:58;;;;;;;;;;;;;;;34.62;nan;100213.16;4944035;28;20334;-81
2023/06/09 09:32:26;;;;;;;;;;;;;;;34.58;nan;100208.59;4934882;28;19922;-82
2023/06/09 09:34:52;;;;;;;;;;;;;;;34.34;nan;100209.84;4932507;28;20308;-80
2023/06/09 09:37:17;;;;;;;;;;;;;;;34.29;nan;100209.19;4936120;28;19919;-82
2023/06/09 09:39:50;;;;;;;;;;;;;;;34.51;nan;100203.56;4934744;28;20284;-81
2023/06/09 09:42:15;;;;;;;;;;;;;;;34.08;nan;100203.44;4941917;28;20341;-81
2023/06/09 09:44:41;;;;;;;;;;;;;;;33.49;nan;100207.19;4948583;28;20116;-81
2023/06/09 09:47:08;;;;;;;;;;;;;;;33.55;nan;100196.88;4934265;28;19914;-81
2023/06/09 09:49:33;;;;;;;;;;;;;;;34.34;nan;100198.84;4947362;28;19914;-82
2023/06/09 09:51:59;;;;;;;;;;;;;;;34.64;nan;100194.44;4935914;28;19964;-80
2023/06/09 09:54:26;;;;;;;;;;;;;;;34.38;nan;100208.06;5067053;28;20003;-82
2023/06/09 09:56:51;;;;;;;;;;;;;;;34.48;nan;100183.06;5036391;28;19999;-81
2023/06/09 09:59:17;;;;;;;;;;;;;;;34.45;nan;100200.19;5034377;28;19951;-83
2023/06/09 10:01:42;;;;;;;;;;;;;;;34.20;nan;100184.44;5052906;28;19921;-82
2023/06/09 10:04:08;;;;;;;;;;;;;;;34.15;nan;100190.91;5051567;28;19962;-81
2023/06/09 10:06:34;;;;;;;;;;;;;;;34.11;nan;100184.44;5061690;28;20011;-82
2023/06/09 10:09:00;;;;;;;;;;;;;;;34.25;nan;100184.31;5073417;28;20131;-82
2023/06/09 10:11:30;;;;;;;;;;;;;;;34.55;nan;100181.78;5074277;28;19936;-81
2023/06/09 10:13:55;;;;;;;;;;;;;;;34.49;nan;100189.34;5055259;28;19917;-83
2023/06/09 10:16:20;;;;;;;;;;;;;;;34.56;nan;100167.72;5075769;28;21603;-81
2023/06/09 10:18:46;;;;;;;;;;;;;;;34.65;nan;100171.31;5074011;28;19943;-82
2023/06/09 10:21:12;;;;;;;;;;;;;;;34.77;nan;100178.91;5073466;28;19919;-81
2023/06/09 10:23:37;;;;;;;;;;;;;;;33.94;nan;100176.91;5072219;28;20335;-81
2023/06/09 10:26:03;;;;;;;;;;;;;;;34.16;nan;100167.03;5055530;28;20157;-81
2023/06/09 10:28:28;;;;;;;;;;;;;;;34.32;nan;100172.84;5073806;28;20309;-82
2023/06/09 10:30:54;;;;;;;;;;;;;;;34.77;nan;100154.19;5073601;28;19948;-82
2023/06/09 10:33:32;;;;;;;;;;;;;;;35.58;nan;100149.06;5071016;28;19916;-82
2023/06/09 10:35:58;;;;;;;;;;;;;;;36.25;nan;100164.78;5057071;28;20007;-82
2023/06/09 10:38:25;;;;;;;;;;;;;;;36.03;nan;100165.06;5074809;28;19912;-83
2023/06/09 10:41:09;;;;;;;;;;;;;;;35.58;nan;100160.84;5076412;28;19912;-83
2023/06/09 10:43:40;;;;;;;;;;;;;;;34.91;nan;100156.78;5075192;28;19976;-82
2023/06/09 10:46:06;;;;;;;;;;;;;;;34.95;nan;100159.69;5073796;28;19912;-82
2023/06/09 10:48:44;;;;;;;;;;;;;;;35.95;nan;100150.22;5072854;28;19980;-81
2023/06/09 10:51:26;;;;;;;;;;;;;;;35.53;nan;100150.84;5074750;28;19980;-81
2023/06/09 10:54:12;;;;;;;;;;;;;;;35.72;nan;100146.94;5056454;28;19943;-82
2023/06/09 10:56:40;;;;;;;;;;;;;;;36.22;nan;100145.41;5056826;28;19917;-82
2023/06/09 10:59:05;;;;;;;;;;;;;;;36.70;nan;100144.88;5074544;28;20028;-82
2023/06/09 11:01:32;;;;;;;;;;;;;;;37.24;nan;100144.09;5056946;28;20320;-81
2023/06/09 11:03:57;;;;;;;;;;;;;;;37.35;nan;100155.47;5055170;28;19920;-83
2023/06/09 11:06:22;;;;;;;;;;;;;;;37.01;nan;100159.38;5054699;28;19916;-81
2023/06/09 11:09:06;;;;;;;;;;;;;;;36.93;nan;100147.28;5073797;28;20236;-81
2023/06/09 11:11:48;;;;;;;;;;;;;;;36.67;nan;100150.28;5056299;28;20404;-82
2023/06/09 11:14:33;;;;;;;;;;;;;;;36.48;nan;100145.22;5073524;28;19912;-82
2023/06/09 11:17:15;;;;;;;;;;;;;;;36.91;nan;100147.63;5056401;28;19916;-81
2023/06/09 11:19:40;;;;;;;;;;;;;;;37.57;nan;100143.25;5073336;28;19920;-81
2023/06/09 11:22:06;;;;;;;;;;;;;;;37.97;nan;100145.31;5072526;28;19917;-82
2023/06/09 11:24:47;;;;;;;;;;;;;;;37.73;nan;100133.13;5066411;28;20011;-83
2023/06/09 11:27:18;;;;;;;;;;;;;;;37.46;nan;100129.06;5056947;28;20050;-83
2023/06/09 11:30:02;;;;;;;;;;;;;;;36.76;nan;100131.72;5055352;28;19924;-83
2023/06/09 11:32:47;;;;;;;;;;;;;;;36.55;nan;100140.78;5071169;28;20046;-83
2023/06/09 11:35:25;;;;;;;;;;;;;;;35.22;nan;100128.31;5010733;28;19930;-81
2023/06/09 11:37:51;;;;;;;;;;;;;;;33.59;nan;100130.16;5042001;28;19939;-81
2023/06/09 11:40:16;;;;;;;;;;;;;;;33.02;nan;100127.22;5023330;28;19918;-83
2023/06/09 11:42:41;;;;;;;;;;;;;;;34.23;nan;100121.50;5055493;28;19940;-81
2023/06/09 11:45:07;;;;;;;;;;;;;;;35.23;nan;100127.16;5065164;28;19913;-81
2023/06/09 11:47:32;;;;;;;;;;;;;;;34.82;nan;100121.06;5045548;28;19920;-83
2023/06/09 11:49:59;;;;;;;;;;;;;;;34.13;nan;100119.06;5049632;28;19924;-80
2023/06/09 11:52:24;;;;;;;;;;;;;;;33.83;nan;100115.25;4971622;28;19918;-81
2023/06/09 11:54:49;;;;;;;;;;;;;;;34.85;nan;100112.19;4988564;28;20278;-81
2023/06/09 11:57:18;;;;;;;;;;;;;;;35.65;nan;100106.19;4960673;28;20003;-82
2023/06/09 11:59:44;;;;;;;;;;;;;;;36.12;nan;100121.81;4993534;28;19917;-82
2023/06/09 12:02:10;;;;;;;;;;;;;;;35.60;nan;100120.13;5043750;28;19939;-83
2023/06/09 12:04:42;;;;;;;;;;;;;;;35.59;nan;100110.22;4965031;28;19914;-81
2023/06/09 12:07:10;;;;;;;;;;;;;;;34.89;nan;100102.13;4955074;28;20286;-81
2023/06/09 12:09:35;;;;;;;;;;;;;;;34.55;nan;100107.66;4958993;28;19919;-80
2023/06/09 12:12:00;;;;;;;;;;;;;;;34.50;nan;100113.31;4972183;28;19914;-81
2023/06/09 12:14:25;;;;;;;;;;;;;;;34.53;nan;100109.91;4972438;28;20004;-81
2023/06/09 12:16:51;;;;;;;;;;;;;;;34.70;nan;100098.13;4971506;28;19945;-81
2023/06/09 12:19:19;;;;;;;;;;;;;;;34.74;nan;100093.63;4961820;28;20190;-81
2023/06/09 12:21:50;;;;;;;;;;;;;;;34.55;nan;100100.22;4939556;28;20367;-83
2023/06/09 12:24:15;;;;;;;;;;;;;;;34.43;nan;100092.63;4956252;28;19923;-83
2023/06/09 12:26:42;;;;;;;;;;;;;;;34.37;nan;100091.19;4938568;28;19989;-84
2023/06/09 12:29:08;;;;;;;;;;;;;;;34.05;nan;100084.97;4955148;28;19921;-83
2023/06/09 12:31:33;;;;;;;;;;;;;;;34.08;nan;100078.03;4944195;28;20301;-83
2023/06/09 12:34:00;;;;;;;;;;;;;;;33.53;nan;100076.56;4958863;28;19921;-81
2023/06/09 12:36:25;;;;;;;;;;;;;;;33.39;nan;100081.34;4937204;28;19924;-81
2023/06/09 12:38:50;;;;;;;;;;;;;;;33.33;nan;100069.72;4937130;29;20324;-81
2023/06/09 12:41:17;;;;;;;;;;;;;;;33.06;nan;100073.47;4957585;28;19921;-82
2023/06/09 12:43:43;;;;;;;;;;;;;;;32.96;nan;100060.78;4961294;28;20387;-81
2023/06/09 12:46:08;;;;;;;;;;;;;;;33.06;nan;100073.47;4952867;28;20287;-82
2023/06/09 12:48:33;;;;;;;;;;;;;;;33.16;nan;100062.22;4958836;28;19914;-84